Time;durP1;ratioP1;P1;durP2;ratioP2;P2;SDS_P1;SDS_P2;PMS_P1;PMS_P2;Temp;Humidity;BMP_temperature;BMP_pressure;BME280_temperature;BME280_humidity;BME280_pressure;Samples;Min_cycle;Max_cycle;Signal;HPM_P1;HPM_P2
2023/10/26 00:01:08;;;;;;;;;;;;;;;12.67;100.00;98363.44;4948619;29;19923;-75
2023/10/26 00:03:34;;;;;;;;;;;;;;;12.68;100.00;98383.59;4946163;28;19958;-76
2023/10/26 00:05:59;;;;;;;;;;;;;;;12.70;100.00;98389.53;4947422;29;19933;-76
2023/10/26 00:08:25;;;;;;;;;;;;;;;12.70;100.00;98410.72;4947432;29;20375;-76
2023/10/26 00:10:51;;;;;;;;;;;;;;;12.61;100.00;98411.81;4961147;28;20013;-76
2023/10/26 00:13:16;;;;;;;;;;;;;;;12.59;100.00;98403.25;4948036;28;20009;-75
2023/10/26 00:15:42;;;;;;;;;;;;;;;12.62;100.00;98397.56;4943876;29;19923;-74
2023/10/26 00:18:07;;;;;;;;;;;;;;;12.61;100.00;98401.22;4942459;29;19930;-74
2023/10/26 00:20:33;;;;;;;;;;;;;;;12.63;100.00;98409.81;4947274;29;19930;-75
2023/10/26 00:22:59;;;;;;;;;;;;;;;12.64;100.00;98394.75;4946045;29;19970;-75
2023/10/26 00:25:24;;;;;;;;;;;;;;;12.64;100.00;98395.56;4946810;29;19922;-75
2023/10/26 00:27:51;;;;;;;;;;;;;;;12.67;100.00;98410.25;4947245;28;20013;-75
2023/10/26 00:30:16;;;;;;;;;;;;;;;12.63;100.00;98396.56;4946039;29;19918;-75
2023/10/26 00:32:41;;;;;;;;;;;;;;;12.64;100.00;98384.16;4944944;29;20003;-75
2023/10/26 00:35:07;;;;;;;;;;;;;;;12.65;100.00;98391.91;4949292;29;19933;-75
2023/10/26 00:37:33;;;;;;;;;;;;;;;12.67;100.00;98400.47;4944792;29;19926;-75
2023/10/26 00:39:58;;;;;;;;;;;;;;;12.58;100.00;98409.53;4946478;28;19922;-75
2023/10/26 00:42:24;;;;;;;;;;;;;;;12.50;100.00;98409.63;4945674;29;19981;-75
2023/10/26 00:44:50;;;;;;;;;;;;;;;12.49;100.00;98386.81;4946083;29;19926;-74
2023/10/26 00:47:16;;;;;;;;;;;;;;;12.55;100.00;98393.19;4946731;28;20020;-75
2023/10/26 00:49:42;;;;;;;;;;;;;;;12.56;100.00;98397.47;4943233;29;19973;-75
2023/10/26 00:52:08;;;;;;;;;;;;;;;12.52;100.00;98396.22;4944984;28;19948;-75
2023/10/26 00:54:34;;;;;;;;;;;;;;;12.47;100.00;98394.13;4948123;29;19930;-75
2023/10/26 00:57:01;;;;;;;;;;;;;;;12.35;100.00;98385.00;4944462;28;19923;-75
2023/10/26 00:59:29;;;;;;;;;;;;;;;12.39;100.00;98369.56;4942711;28;19938;-74
2023/10/26 01:01:55;;;;;;;;;;;;;;;12.39;100.00;98370.38;4943703;28;20346;-74
2023/10/26 01:04:21;;;;;;;;;;;;;;;12.41;100.00;98384.28;4944673;29;19931;-75
2023/10/26 01:06:47;;;;;;;;;;;;;;;12.44;100.00;98391.81;4943706;28;19929;-75
2023/10/26 01:09:14;;;;;;;;;;;;;;;12.46;100.00;98397.75;4949140;29;20025;-74
2023/10/26 01:11:41;;;;;;;;;;;;;;;12.42;100.00;98412.38;4942198;29;19977;-74
2023/10/26 01:14:07;;;;;;;;;;;;;;;12.34;100.00;98430.97;4942998;29;20767;-78
2023/10/26 01:16:32;;;;;;;;;;;;;;;12.26;100.00;98428.38;4945628;29;19923;-75
2023/10/26 01:19:02;;;;;;;;;;;;;;;12.26;100.00;98412.50;4945065;28;19930;-76
2023/10/26 01:21:28;;;;;;;;;;;;;;;12.29;100.00;98417.47;4945182;28;19973;-75
2023/10/26 01:23:53;;;;;;;;;;;;;;;12.26;100.00;98412.50;4945533;29;19922;-76
2023/10/26 01:26:19;;;;;;;;;;;;;;;12.27;100.00;98406.22;4943931;28;19933;-74
2023/10/26 01:28:44;;;;;;;;;;;;;;;12.26;100.00;98408.06;4946354;28;19969;-75
2023/10/26 01:31:14;;;;;;;;;;;;;;;12.19;100.00;98406.34;4948563;28;19922;-76
2023/10/26 01:33:40;;;;;;;;;;;;;;;12.22;100.00;98419.19;4948322;28;19970;-76
2023/10/26 01:36:05;;;;;;;;;;;;;;;12.22;100.00;98405.97;4943427;29;19977;-75
2023/10/26 01:38:30;;;;;;;;;;;;;;;12.22;100.00;98400.66;4946049;29;19922;-76
2023/10/26 01:40:56;;;;;;;;;;;;;;;12.22;100.00;98393.56;4942978;29;19923;-75
2023/10/26 01:43:24;;;;;;;;;;;;;;;12.14;100.00;98387.50;4946068;28;19985;-76
2023/10/26 01:45:49;;;;;;;;;;;;;;;12.16;100.00;98374.94;4943416;28;19926;-75
2023/10/26 01:48:15;;;;;;;;;;;;;;;12.19;100.00;98369.31;4944942;28;19930;-76
2023/10/26 01:50:40;;;;;;;;;;;;;;;12.12;100.00;98373.66;4948415;28;19978;-75
2023/10/26 01:53:06;;;;;;;;;;;;;;;12.10;100.00;98370.38;4941870;29;19927;-75
2023/10/26 01:55:31;;;;;;;;;;;;;;;12.14;100.00;98361.91;4948655;29;19923;-74
2023/10/26 01:57:57;;;;;;;;;;;;;;;12.11;100.00;98356.97;4948369;28;19930;-74
2023/10/26 02:00:23;;;;;;;;;;;;;;;12.13;100.00;98356.81;4948276;29;19923;-75
2023/10/26 02:02:49;;;;;;;;;;;;;;;12.12;100.00;98368.38;4947810;29;19922;-76
2023/10/26 02:05:15;;;;;;;;;;;;;;;12.16;100.00;98374.94;4953170;29;19923;-75
2023/10/26 02:07:40;;;;;;;;;;;;;;;12.16;100.00;98380.22;4946848;29;20406;-75
2023/10/26 02:10:07;;;;;;;;;;;;;;;12.11;100.00;98377.31;4946337;28;19930;-75
2023/10/26 02:12:32;;;;;;;;;;;;;;;12.09;100.00;98374.03;4946246;29;19930;-75
2023/10/26 02:14:58;;;;;;;;;;;;;;;12.12;100.00;98368.38;4947858;28;20017;-75
2023/10/26 02:17:23;;;;;;;;;;;;;;;12.05;100.00;98356.88;4948995;29;19923;-74
2023/10/26 02:19:49;;;;;;;;;;;;;;;12.06;100.00;98345.31;4945180;28;19934;-75
2023/10/26 02:22:14;;;;;;;;;;;;;;;12.05;100.00;98341.03;4949935;29;19985;-74
2023/10/26 02:24:41;;;;;;;;;;;;;;;12.06;100.00;98334.72;4946791;29;20010;-73
2023/10/26 02:27:07;;;;;;;;;;;;;;;12.02;100.00;98336.06;4949546;29;20446;-75
2023/10/26 02:29:32;;;;;;;;;;;;;;;12.03;100.00;98337.72;4944716;29;19934;-74
2023/10/26 02:31:58;;;;;;;;;;;;;;;12.02;100.00;98341.38;4946915;29;19934;-74
2023/10/26 02:34:23;;;;;;;;;;;;;;;12.01;100.00;98356.44;4948497;28;19929;-75
2023/10/26 02:36:49;;;;;;;;;;;;;;;11.93;100.00;98360.97;4942332;29;20060;-75
2023/10/26 02:39:14;;;;;;;;;;;;;;;11.94;100.00;98363.44;4945975;29;19952;-75
2023/10/26 02:41:39;;;;;;;;;;;;;;;11.95;100.00;98361.63;4948080;28;20025;-75
2023/10/26 02:44:05;;;;;;;;;;;;;;;11.92;100.00;98359.31;4946527;28;19926;-75
2023/10/26 02:46:31;;;;;;;;;;;;;;;11.92;100.00;98351.38;4948881;29;19930;-75
2023/10/26 02:48:57;;;;;;;;;;;;;;;11.92;100.00;98356.69;4949660;29;19980;-75
2023/10/26 02:51:23;;;;;;;;;;;;;;;11.84;100.00;98361.03;4946466;29;19923;-75
2023/10/26 02:53:49;;;;;;;;;;;;;;;11.82;100.00;98352.50;4946240;28;20009;-75
2023/10/26 02:56:14;;;;;;;;;;;;;;;11.85;100.00;98346.81;4946133;29;19942;-74
2023/10/26 02:58:40;;;;;;;;;;;;;;;11.88;100.00;98341.19;4944534;29;19922;-74
2023/10/26 03:01:05;;;;;;;;;;;;;;;11.84;100.00;98339.88;4948426;28;20009;-75
2023/10/26 03:03:31;;;;;;;;;;;;;;;11.80;100.00;98338.63;4947213;29;19926;-75
2023/10/26 03:06:00;;;;;;;;;;;;;;;11.75;100.00;98335.69;4946059;28;19929;-75
2023/10/26 03:08:25;;;;;;;;;;;;;;;11.73;100.00;98345.63;4946524;28;19973;-75
2023/10/26 03:10:52;;;;;;;;;;;;;;;11.72;100.00;98341.28;4946851;29;19926;-75
2023/10/26 03:13:18;;;;;;;;;;;;;;;11.71;100.00;98344.97;4948232;29;19922;-75
2023/10/26 03:15:43;;;;;;;;;;;;;;;11.73;100.00;98353.53;4945146;28;19933;-75
2023/10/26 03:18:09;;;;;;;;;;;;;;;11.69;100.00;98361.97;4945985;28;19933;-75
2023/10/26 03:20:35;;;;;;;;;;;;;;;11.63;100.00;98358.22;4947502;28;19965;-75
2023/10/26 03:23:00;;;;;;;;;;;;;;;11.59;100.00;98367.53;4946980;29;19933;-74
2023/10/26 03:25:26;;;;;;;;;;;;;;;11.65;100.00;98358.88;4945707;29;20315;-75
2023/10/26 03:27:52;;;;;;;;;;;;;;;11.66;100.00;98371.09;4947916;29;19923;-75
2023/10/26 03:30:18;;;;;;;;;;;;;;;11.66;100.00;98363.19;4946761;29;19945;-75
2023/10/26 03:32:45;;;;;;;;;;;;;;;11.69;100.00;98362.81;4951504;29;20303;-74
2023/10/26 03:35:11;;;;;;;;;;;;;;;11.69;100.00;98346.94;4945558;29;19952;-75
2023/10/26 03:37:37;;;;;;;;;;;;;;;11.69;100.00;98354.88;4946096;28;20066;-74
2023/10/26 03:40:03;;;;;;;;;;;;;;;11.68;100.00;98366.44;4947419;29;19922;-75
2023/10/26 03:42:29;;;;;;;;;;;;;;;11.67;100.00;98370.09;4946653;28;19922;-74
2023/10/26 03:44:54;;;;;;;;;;;;;;;11.65;100.00;98374.75;4943263;29;19922;-75
2023/10/26 03:47:20;;;;;;;;;;;;;;;11.62;100.00;98351.31;4947727;29;19926;-75
2023/10/26 03:49:46;;;;;;;;;;;;;;;11.56;100.00;98341.44;4944489;28;19923;-75
2023/10/26 03:52:13;;;;;;;;;;;;;;;11.50;100.00;98347.44;4943712;29;19949;-75
2023/10/26 03:54:39;;;;;;;;;;;;;;;11.50;100.00;98342.16;4944012;29;20387;-76
2023/10/26 03:57:06;;;;;;;;;;;;;;;11.49;100.00;98353.72;4948186;28;19922;-76
2023/10/26 03:59:31;;;;;;;;;;;;;;;11.44;100.00;98342.88;4945655;28;19926;-76
2023/10/26 04:01:57;;;;;;;;;;;;;;;11.44;100.00;98358.72;4941940;28;19929;-75
2023/10/26 04:04:22;;;;;;;;;;;;;;;11.42;100.00;98355.44;4948719;29;19969;-74
2023/10/26 04:06:47;;;;;;;;;;;;;;;11.35;100.00;98359.78;4944967;29;19975;-75
2023/10/26 04:09:13;;;;;;;;;;;;;;;11.42;100.00;98350.16;4948540;29;19967;-74
2023/10/26 04:11:42;;;;;;;;;;;;;;;11.40;100.00;98338.94;4943492;29;19926;-74
2023/10/26 04:14:07;;;;;;;;;;;;;;;11.36;100.00;98346.41;4946759;28;20410;-73
2023/10/26 04:16:32;;;;;;;;;;;;;;;11.30;100.00;98343.66;4945008;29;19962;-74
2023/10/26 04:18:59;;;;;;;;;;;;;;;11.30;100.00;98351.56;4962275;28;19918;-75
2023/10/26 04:21:24;;;;;;;;;;;;;;;11.38;100.00;98372.63;4942342;29;20467;-74
2023/10/26 04:23:50;;;;;;;;;;;;;;;11.42;100.00;98377.41;4949519;29;19929;-77
2023/10/26 04:26:15;;;;;;;;;;;;;;;11.43;100.00;98373.75;4945246;29;20042;-74
2023/10/26 04:28:41;;;;;;;;;;;;;;;11.42;100.00;98377.41;5616118;23;19949;-77
2023/10/26 04:31:08;;;;;;;;;;;;;;;11.40;100.00;98387.31;4946190;29;19927;-79
2023/10/26 04:33:33;;;;;;;;;;;;;;;11.43;100.00;98384.31;4946811;29;19965;-78
2023/10/26 04:36:02;;;;;;;;;;;;;;;11.48;100.00;98386.44;4946196;28;20346;-79
2023/10/26 04:38:28;;;;;;;;;;;;;;;11.49;100.00;98373.03;4945706;29;19957;-78
2023/10/26 04:40:54;;;;;;;;;;;;;;;11.51;100.00;98375.50;4938290;28;20431;-80
2023/10/26 04:43:19;;;;;;;;;;;;;;;11.49;100.00;98366.94;4947763;28;20141;-78
2023/10/26 04:45:46;;;;;;;;;;;;;;;11.43;100.00;98362.34;4944724;29;19922;-79
2023/10/26 04:48:11;;;;;;;;;;;;;;;11.43;100.00;98362.34;4946307;29;19973;-78
2023/10/26 04:50:37;;;;;;;;;;;;;;;11.45;100.00;98355.09;4945044;28;19927;-78
2023/10/26 04:53:02;;;;;;;;;;;;;;;11.38;100.00;98359.41;4947118;29;19930;-82
2023/10/26 04:55:30;;;;;;;;;;;;;;;11.34;100.00;98366.06;4950305;29;19922;-78
2023/10/26 04:57:56;;;;;;;;;;;;;;;11.31;100.00;98371.72;4948902;28;19930;-82
2023/10/26 05:00:21;;;;;;;;;;;;;;;11.24;100.00;98368.13;4946002;28;19970;-84
2023/10/26 05:02:47;;;;;;;;;;;;;;;11.20;100.00;98365.00;4944538;29;19922;-79
2023/10/26 05:05:12;;;;;;;;;;;;;;;11.23;100.00;98367.31;4944232;28;20021;-79
2023/10/26 05:07:37;;;;;;;;;;;;;;;11.24;100.00;98357.56;4943812;29;19923;-78
2023/10/26 05:10:05;;;;;;;;;;;;;;;11.24;100.00;98347.81;4946422;28;19989;-77
2023/10/26 05:12:30;;;;;;;;;;;;;;;11.29;100.00;98340.19;4944155;29;19966;-78
2023/10/26 05:14:56;;;;;;;;;;;;;;;11.28;100.00;98333.25;4945162;29;19969;-78
2023/10/26 05:17:21;;;;;;;;;;;;;;;11.24;100.00;98324.06;4945194;28;19930;-77
2023/10/26 05:19:46;;;;;;;;;;;;;;;11.23;100.00;98329.50;4954368;28;20021;-81
2023/10/26 05:22:12;;;;;;;;;;;;;;;11.24;100.00;98333.81;4945072;29;20276;-83
2023/10/26 05:24:38;;;;;;;;;;;;;;;11.25;100.00;98343.38;4943826;28;19927;-86
2023/10/26 05:27:04;;;;;;;;;;;;;;;11.29;100.00;98339.38;4948658;29;19949;-85
2023/10/26 05:29:29;;;;;;;;;;;;;;;11.36;100.00;98332.38;4951549;28;20395;-83
2023/10/26 05:31:55;;;;;;;;;;;;;;;11.44;100.00;98340.22;4950985;29;19941;-82
2023/10/26 05:34:21;;;;;;;;;;;;;;;11.45;100.00;98333.94;4946621;28;20311;-81
2023/10/26 05:36:46;;;;;;;;;;;;;;;11.46;100.00;98330.31;4945410;29;20356;-81
2023/10/26 05:39:11;;;;;;;;;;;;;;;11.34;100.00;98339.66;4946503;28;19950;-79
2023/10/26 05:41:36;;;;;;;;;;;;;;;11.34;100.00;98342.28;4949082;29;20335;-80
2023/10/26 05:44:02;;;;;;;;;;;;;;;11.31;100.00;98345.31;4949603;28;19995;-78
2023/10/26 05:46:28;;;;;;;;;;;;;;;11.29;100.00;98356.03;4949888;29;19933;-81
2023/10/26 05:48:53;;;;;;;;;;;;;;;11.28;100.00;98364.13;4948889;28;19922;-77
2023/10/26 05:51:19;;;;;;;;;;;;;;;11.31;100.00;98354.03;4948811;29;19923;-78
2023/10/26 05:53:44;;;;;;;;;;;;;;;11.33;100.00;98351.22;4960715;28;19922;-80
2023/10/26 05:56:10;;;;;;;;;;;;;;;11.35;100.00;98349.22;4946752;29;19936;-80
2023/10/26 05:58:36;;;;;;;;;;;;;;;11.32;100.00;98344.28;4949139;28;19923;-80
2023/10/26 06:01:02;;;;;;;;;;;;;;;11.32;100.00;98341.63;4949586;28;20014;-80
2023/10/26 06:03:27;;;;;;;;;;;;;;;11.28;100.00;98321.88;4947012;28;20376;-79
2023/10/26 06:05:59;;;;;;;;;;;;;;;11.33;100.00;98316.88;4952618;28;19985;-79
2023/10/26 06:08:25;;;;;;;;;;;;;;;11.30;100.00;98322.53;4949774;29;19930;-79
2023/10/26 06:10:51;;;;;;;;;;;;;;;11.42;100.00;98323.75;4949836;28;20026;-79
2023/10/26 06:13:16;;;;;;;;;;;;;;;11.40;100.00;98331.03;4947498;29;19923;-79
2023/10/26 06:15:42;;;;;;;;;;;;;;;11.44;100.00;98327.84;4954331;28;19974;-79
2023/10/26 06:18:07;;;;;;;;;;;;;;;11.32;100.00;98339.81;4949049;29;20398;-78
2023/10/26 06:20:32;;;;;;;;;;;;;;;11.41;100.00;98337.94;4947151;28;19922;-77
2023/10/26 06:22:58;;;;;;;;;;;;;;;11.46;100.00;98335.59;4945562;29;20066;-77
2023/10/26 06:25:25;;;;;;;;;;;;;;;11.51;100.00;98325.31;4955540;28;19922;-78
2023/10/26 06:27:50;;;;;;;;;;;;;;;11.56;100.00;98330.06;4946965;28;20435;-78
2023/10/26 06:30:16;;;;;;;;;;;;;;;11.60;100.00;98347.22;4946851;29;19930;-79
2023/10/26 06:32:41;;;;;;;;;;;;;;;11.64;100.00;98359.06;4947328;29;19926;-80
2023/10/26 06:35:07;;;;;;;;;;;;;;;11.63;100.00;98342.38;4942781;28;19970;-78
2023/10/26 06:37:32;;;;;;;;;;;;;;;11.68;100.00;98333.91;4943984;28;19922;-78
2023/10/26 06:39:58;;;;;;;;;;;;;;;11.72;100.00;98330.72;4941748;29;19919;-79
2023/10/26 06:42:27;;;;;;;;;;;;;;;11.73;100.00;98311.25;4950911;28;20025;-79
2023/10/26 06:44:57;;;;;;;;;;;;;;;11.77;100.00;98304.63;4947055;28;20686;-82
2023/10/26 06:47:23;;;;;;;;;;;;;;;11.80;100.00;98321.94;4949911;28;19922;-80
2023/10/26 06:49:48;;;;;;;;;;;;;;;11.82;100.00;98323.41;4948128;29;20029;-76
2023/10/26 06:52:14;;;;;;;;;;;;;;;11.85;100.00;98330.97;4947827;29;19922;-78
2023/10/26 06:54:39;;;;;;;;;;;;;;;11.86;100.00;98345.84;4942879;29;19969;-78
2023/10/26 06:57:05;;;;;;;;;;;;;;;11.86;100.00;98345.84;4945805;29;20033;-78
2023/10/26 06:59:30;;;;;;;;;;;;;;;11.88;100.00;98329.78;4947871;29;19962;-79
2023/10/26 07:01:56;;;;;;;;;;;;;;;11.89;100.00;98337.56;4945619;29;19929;-77
2023/10/26 07:04:21;;;;;;;;;;;;;;;11.93;100.00;98331.88;4947454;28;21335;-78
2023/10/26 07:06:59;;;;;;;;;;;;;;;11.94;100.00;98328.25;4944250;28;19922;-75
2023/10/26 07:09:24;;;;;;;;;;;;;;;11.93;100.00;98329.25;4943813;28;19922;-78
2023/10/26 07:11:50;;;;;;;;;;;;;;;11.97;100.00;98318.13;4944599;29;20343;-77
2023/10/26 07:14:15;;;;;;;;;;;;;;;12.03;100.00;98348.31;4946604;29;19988;-77
2023/10/26 07:16:41;;;;;;;;;;;;;;;12.04;100.00;98348.13;4954835;28;20514;-75
2023/10/26 07:19:07;;;;;;;;;;;;;;;12.10;100.00;98346.59;4949476;28;19929;-78
2023/10/26 07:21:34;;;;;;;;;;;;;;;12.15;100.00;98352.13;4947582;29;20311;-78
2023/10/26 07:23:59;;;;;;;;;;;;;;;12.20;100.00;98360.34;4948415;28;19929;-78
2023/10/26 07:26:25;;;;;;;;;;;;;;;12.21;100.00;98356.69;4944238;28;19922;-77
2023/10/26 07:28:50;;;;;;;;;;;;;;;12.19;100.00;98385.97;4950137;28;19934;-78
2023/10/26 07:31:19;;;;;;;;;;;;;;;12.12;100.00;98400.13;4957727;23;20006;-77
2023/10/26 07:33:44;;;;;;;;;;;;;;;12.12;100.00;98394.84;4929776;29;20415;-78
2023/10/26 07:36:10;;;;;;;;;;;;;;;12.14;100.00;98387.50;4930973;29;19982;-79
2023/10/26 07:38:35;;;;;;;;;;;;;;;12.13;100.00;98385.91;4927652;28;19929;-79
2023/10/26 07:41:03;;;;;;;;;;;;;;;12.15;100.00;98399.75;4931823;29;19922;-79
2023/10/26 07:43:28;;;;;;;;;;;;;;;12.16;100.00;98386.34;4931679;29;19923;-79
2023/10/26 07:45:54;;;;;;;;;;;;;;;12.20;100.00;98382.31;4927084;29;20272;-77
2023/10/26 07:48:20;;;;;;;;;;;;;;;12.24;100.00;98383.63;4929845;29;19928;-78
2023/10/26 07:50:46;;;;;;;;;;;;;;;12.27;100.00;98374.50;4927027;29;19933;-78
2023/10/26 07:53:11;;;;;;;;;;;;;;;12.32;100.00;98390.63;4921613;29;19919;-79
2023/10/26 07:55:37;;;;;;;;;;;;;;;12.33;100.00;98381.69;4973804;23;19990;-76
2023/10/26 07:58:03;;;;;;;;;;;;;;;12.39;100.00;98375.69;4941550;29;19930;-77
2023/10/26 08:00:28;;;;;;;;;;;;;;;12.38;100.00;98374.03;4943141;28;20060;-78
2023/10/26 08:02:54;;;;;;;;;;;;;;;12.41;100.00;98352.53;4941923;29;19954;-75
2023/10/26 08:05:19;;;;;;;;;;;;;;;12.47;100.00;98346.50;4944104;29;19922;-77
2023/10/26 08:07:47;;;;;;;;;;;;;;;12.48;100.00;98347.31;4942690;29;20222;-76
2023/10/26 08:10:12;;;;;;;;;;;;;;;12.54;100.00;98347.41;4937526;29;19930;-74
2023/10/26 08:12:37;;;;;;;;;;;;;;;12.57;100.00;98347.03;4942415;29;20009;-77
2023/10/26 08:15:04;;;;;;;;;;;;;;;12.67;100.00;98346.72;4933728;29;19923;-79
2023/10/26 08:17:34;;;;;;;;;;;;;;;12.76;100.00;98365.97;4943701;29;20354;-78
2023/10/26 08:20:01;;;;;;;;;;;;;;;12.82;100.00;98367.88;4937463;29;19958;-77
2023/10/26 08:22:32;;;;;;;;;;;;;;;12.89;100.00;98361.66;4940279;29;20026;-77
2023/10/26 08:24:59;;;;;;;;;;;;;;;12.88;100.00;98373.25;4936789;29;19970;-77
2023/10/26 08:27:24;;;;;;;;;;;;;;;12.93;100.00;98401.81;4936401;29;19938;-75
2023/10/26 08:29:50;;;;;;;;;;;;;;;12.98;100.00;98397.59;4942903;28;19922;-75
2023/10/26 08:32:15;;;;;;;;;;;;;;;12.98;100.00;98402.91;4942381;28;19926;-81
2023/10/26 08:34:41;;;;;;;;;;;;;;;12.96;100.00;98422.66;4941832;28;19923;-77
2023/10/26 08:37:06;;;;;;;;;;;;;;;12.97;100.00;98421.63;4938111;29;19930;-76
2023/10/26 08:39:31;;;;;;;;;;;;;;;12.98;100.00;98418.78;4940593;29;20001;-78
2023/10/26 08:42:01;;;;;;;;;;;;;;;12.93;100.00;98425.66;4932822;29;20022;-78
2023/10/26 08:44:28;;;;;;;;;;;;;;;12.94;100.00;98416.72;4940228;29;19927;-78
2023/10/26 08:47:03;;;;;;;;;;;;;;;12.94;100.00;98414.88;4943320;29;20312;-78
2023/10/26 08:49:32;;;;;;;;;;;;;;;12.93;100.00;98420.34;4940400;28;19923;-78
2023/10/26 08:51:58;;;;;;;;;;;;;;;13.09;100.00;98420.13;4934416;29;20299;-78
2023/10/26 08:54:25;;;;;;;;;;;;;;;13.24;100.00;98418.31;4943817;29;20383;-77
2023/10/26 08:56:50;;;;;;;;;;;;;;;13.36;100.00;98406.22;4940679;29;19990;-76
2023/10/26 08:59:16;;;;;;;;;;;;;;;13.40;100.00;98401.34;4941330;28;20355;-77
2023/10/26 09:01:46;;;;;;;;;;;;;;;13.35;100.00;98401.94;4939354;29;19922;-77
2023/10/26 09:04:12;;;;;;;;;;;;;;;13.37;100.00;98402.53;4937109;29;19927;-76
2023/10/26 09:06:42;;;;;;;;;;;;;;;13.30;100.00;98408.81;4937093;29;19927;-76
2023/10/26 09:09:07;;;;;;;;;;;;;;;13.34;100.00;98416.19;4938730;29;19927;-77
2023/10/26 09:11:36;;;;;;;;;;;;;;;13.42;100.00;98426.66;4940183;29;19937;-75
2023/10/26 09:14:20;;;;;;;;;;;;;;;13.50;100.00;98407.16;4933657;29;19922;-76
2023/10/26 09:16:47;;;;;;;;;;;;;;;13.60;100.00;98412.16;4933204;29;19922;-77
2023/10/26 09:19:12;;;;;;;;;;;;;;;13.66;100.00;98411.41;4937143;29;19950;-76
2023/10/26 09:21:50;;;;;;;;;;;;;;;13.71;100.00;98424.91;4938759;29;19930;-77
2023/10/26 09:24:20;;;;;;;;;;;;;;;13.65;100.00;98430.97;4938394;29;19933;-76
2023/10/26 09:26:46;;;;;;;;;;;;;;;13.64;100.00;98435.44;4943274;28;19926;-77
2023/10/26 09:29:11;;;;;;;;;;;;;;;13.70;100.00;98449.78;4942466;29;19929;-78
2023/10/26 09:31:53;;;;;;;;;;;;;;;13.81;100.00;98428.06;4938220;28;19926;-77
2023/10/26 09:34:21;;;;;;;;;;;;;;;13.89;100.00;98417.31;4941759;29;20271;-75
2023/10/26 09:37:00;;;;;;;;;;;;;;;13.95;100.00;98408.59;4941392;29;19934;-77
2023/10/26 09:39:31;;;;;;;;;;;;;;;14.02;100.00;98392.75;4943038;29;19922;-76
2023/10/26 09:41:57;;;;;;;;;;;;;;;14.04;100.00;98375.59;4942928;28;19929;-77
2023/10/26 09:44:23;;;;;;;;;;;;;;;14.02;100.00;98371.53;4943809;28;19988;-75
2023/10/26 09:46:49;;;;;;;;;;;;;;;13.99;100.00;98355.97;4943216;29;19965;-75
2023/10/26 09:49:15;;;;;;;;;;;;;;;14.01;100.00;98341.53;4940850;29;20334;-76
2023/10/26 09:51:40;;;;;;;;;;;;;;;14.06;100.00;98344.41;4940588;29;20294;-76
2023/10/26 09:54:08;;;;;;;;;;;;;;;14.10;100.00;98374.84;4938900;29;19927;-79
2023/10/26 09:56:35;;;;;;;;;;;;;;;14.12;100.00;98380.78;4940308;29;20402;-75
2023/10/26 09:59:01;;;;;;;;;;;;;;;14.10;100.00;98405.84;4942031;28;19930;-78
2023/10/26 10:01:33;;;;;;;;;;;;;;;14.07;100.00;98409.72;4944618;28;19930;-77
2023/10/26 10:03:59;;;;;;;;;;;;;;;14.09;100.00;98397.06;4941062;28;20291;-78
2023/10/26 10:10:03;;;;;;;;;;;;;;;14.21;100.00;98390.22;4939555;29;19981;-77
2023/10/26 10:12:38;;;;;;;;;;;;;;;14.24;100.00;98395.16;4943172;28;19923;-77
2023/10/26 10:15:06;;;;;;;;;;;;;;;14.26;100.00;98398.41;4942149;28;19928;-78
2023/10/26 10:17:44;;;;;;;;;;;;;;;14.26;100.00;98413.50;4942736;29;20446;-78
2023/10/26 10:20:18;;;;;;;;;;;;;;;14.30;100.00;98418.25;4941381;29;19993;-75
2023/10/26 10:22:43;;;;;;;;;;;;;;;14.34;100.00;98411.53;4937051;29;19922;-77
2023/10/26 10:25:10;;;;;;;;;;;;;;;14.34;100.00;98400.09;4940183;29;19934;-77
2023/10/26 10:27:38;;;;;;;;;;;;;;;14.27;100.00;98394.75;4945989;29;20092;-78
2023/10/26 10:30:05;;;;;;;;;;;;;;;14.28;100.00;98390.25;4940015;28;19922;-77
2023/10/26 10:32:50;;;;;;;;;;;;;;;14.31;100.00;98393.31;4945340;28;19931;-76
2023/10/26 10:35:21;;;;;;;;;;;;;;;14.32;100.00;98397.63;4936356;29;19923;-78
2023/10/26 10:38:05;;;;;;;;;;;;;;;14.37;100.00;98394.44;4943568;28;20396;-78
2023/10/26 10:40:33;;;;;;;;;;;;;;;14.41;100.00;98389.56;4942885;29;19929;-78
2023/10/26 10:42:58;;;;;;;;;;;;;;;14.39;100.00;98383.59;4945095;29;20374;-77
2023/10/26 10:45:24;;;;;;;;;;;;;;;14.39;100.00;98383.59;4943012;29;19930;-77
2023/10/26 10:47:50;;;;;;;;;;;;;;;14.39;100.00;98386.25;4944890;28;20019;-77
2023/10/26 10:50:26;;;;;;;;;;;;;;;14.50;100.00;98393.69;4939884;29;19922;-74
2023/10/26 10:52:56;;;;;;;;;;;;;;;14.59;100.00;98392.53;4943626;29;20081;-77
2023/10/26 10:55:27;;;;;;;;;;;;;;;14.63;100.00;98399.06;4943690;29;20036;-77
2023/10/26 10:58:00;;;;;;;;;;;;;;;14.68;100.00;98389.50;4943238;29;20001;-77
2023/10/26 11:00:45;;;;;;;;;;;;;;;14.67;100.00;98379.06;4941745;28;19925;-79
2023/10/26 11:03:18;;;;;;;;;;;;;;;14.72;100.00;98387.28;4937336;29;20458;-78
2023/10/26 11:05:43;;;;;;;;;;;;;;;14.74;100.00;98390.53;4936737;29;19953;-81
2023/10/26 11:08:09;;;;;;;;;;;;;;;14.76;100.00;98385.84;4944503;29;20354;-77
2023/10/26 11:10:34;;;;;;;;;;;;;;;14.79;100.00;98361.56;4943726;28;20326;-81
2023/10/26 11:13:00;;;;;;;;;;;;;;;14.80;100.00;98368.50;4943634;28;19926;-81
2023/10/26 11:15:38;;;;;;;;;;;;;;;14.81;100.00;98359.53;4947719;28;20428;-81
2023/10/26 11:18:04;;;;;;;;;;;;;;;14.86;100.00;98353.63;4595053;28;10000570;-79
2023/10/26 11:20:43;;;;;;;;;;;;;;;14.89;100.00;98351.41;4935777;29;19923;-81
2023/10/26 11:23:10;;;;;;;;;;;;;;;14.92;100.00;98350.16;4940086;29;19981;-80
2023/10/26 11:25:36;;;;;;;;;;;;;;;14.99;100.00;98341.19;4940952;28;19927;-79
2023/10/26 11:28:02;;;;;;;;;;;;;;;14.99;100.00;98330.56;4939178;29;19934;-80
2023/10/26 11:30:29;;;;;;;;;;;;;;;15.05;100.00;98319.16;4943509;28;20275;-80
2023/10/26 11:32:54;;;;;;;;;;;;;;;15.11;100.00;98317.53;4940081;28;20344;-80
2023/10/26 11:35:19;;;;;;;;;;;;;;;15.18;100.00;98318.34;4941400;28;19931;-83
2023/10/26 11:37:46;;;;;;;;;;;;;;;15.27;100.00;98295.88;4936993;29;19991;-80
2023/10/26 11:40:12;;;;;;;;;;;;;;;15.39;100.00;98280.13;4943114;28;19927;-80
2023/10/26 11:42:55;;;;;;;;;;;;;;;15.42;100.00;98285.06;4941406;29;20305;-79
2023/10/26 11:45:22;;;;;;;;;;;;;;;15.35;100.00;98289.56;4939181;29;19926;-79
2023/10/26 11:47:48;;;;;;;;;;;;;;;15.34;100.00;98295.88;4940157;29;19926;-78
2023/10/26 11:50:30;;;;;;;;;;;;;;;15.31;100.00;98293.66;4939852;29;20309;-79
2023/10/26 11:52:57;;;;;;;;;;;;;;;15.32;100.00;98292.59;4939679;29;20068;-78
2023/10/26 11:55:24;;;;;;;;;;;;;;;15.34;100.00;98296.69;4937834;29;19931;-79
2023/10/26 11:57:51;;;;;;;;;;;;;;;15.34;100.00;98290.56;4943756;29;19927;-80
2023/10/26 12:00:17;;;;;;;;;;;;;;;15.32;100.00;98297.91;4939400;28;20396;-79
2023/10/26 12:02:43;;;;;;;;;;;;;;;15.27;100.00;98287.06;4940358;28;19943;-79
2023/10/26 12:05:11;;;;;;;;;;;;;;;15.27;100.00;98295.06;4939147;29;20511;-78
2023/10/26 12:07:36;;;;;;;;;;;;;;;15.28;100.00;98286.06;4940159;28;20287;-78
2023/10/26 12:10:03;;;;;;;;;;;;;;;15.28;100.00;98286.06;4937573;29;19931;-78
2023/10/26 12:12:28;;;;;;;;;;;;;;;15.29;100.00;98279.72;4939437;28;20422;-78
2023/10/26 12:14:54;;;;;;;;;;;;;;;15.29;100.00;98277.06;4936597;29;19922;-79
2023/10/26 12:17:19;;;;;;;;;;;;;;;15.32;100.00;98271.34;4938620;28;19934;-78
2023/10/26 12:19:45;;;;;;;;;;;;;;;15.34;100.00;98279.94;4937278;29;19924;-79
2023/10/26 12:22:10;;;;;;;;;;;;;;;15.35;100.00;98276.25;4938487;29;20129;-77
2023/10/26 12:24:36;;;;;;;;;;;;;;;15.35;100.00;98261.13;4945779;29;20536;-79
2023/10/26 12:27:01;;;;;;;;;;;;;;;15.40;100.00;98249.88;4953984;29;19922;-77
2023/10/26 12:29:27;;;;;;;;;;;;;;;15.43;100.00;98252.16;4261676;28;10000791;-78
2023/10/26 12:31:53;;;;;;;;;;;;;;;15.47;100.00;98242.72;4963791;29;19930;-78
2023/10/26 12:34:19;;;;;;;;;;;;;;;15.49;100.00;98230.06;4960176;28;19924;-80
2023/10/26 12:36:47;;;;;;;;;;;;;;;15.51;100.00;98217.34;4938205;29;20399;-80